createdAt,value
2023-04-28T00:00:03.438Z,53.20
2023-04-28T00:02:32.887Z,53.50
2023-04-28T00:05:01.000Z,53.10
2023-04-28T00:07:28.913Z,53.20
2023-04-28T00:09:56.989Z,53.20
2023-04-28T00:12:24.990Z,53.20
2023-04-28T00:14:52.852Z,53.10
2023-04-28T00:17:20.781Z,53.10
2023-04-28T00:19:50.853Z,53.10
2023-04-28T00:22:18.750Z,53.10
2023-04-28T00:24:46.762Z,53.10
2023-04-28T00:27:14.612Z,53.10
2023-04-28T00:29:42.522Z,53.10
2023-04-28T00:32:10.606Z,53.10
2023-04-28T00:34:38.561Z,53.10
2023-04-28T00:37:07.744Z,53.10
2023-04-28T00:39:35.602Z,53.10
2023-04-28T00:42:04.197Z,53.10
2023-04-28T00:44:32.094Z,53.70
2023-04-28T00:47:00.515Z,53.10
2023-04-28T00:49:28.485Z,53.10
2023-04-28T00:51:56.397Z,53.10
2023-04-28T00:54:25.980Z,53.10
2023-04-28T00:56:54.313Z,53.10
2023-04-28T00:59:22.143Z,53.10
2023-04-28T01:01:50.612Z,53.10
2023-04-28T01:04:21.524Z,53.10
2023-04-28T01:06:50.979Z,53.10
2023-04-28T01:09:19.266Z,53.10
2023-04-28T01:11:48.466Z,53.10
2023-04-28T01:14:16.511Z,53.10
2023-04-28T01:16:45.059Z,53.10
2023-04-28T01:19:18.218Z,53.10
2023-04-28T01:21:46.182Z,53.10
2023-04-28T01:24:15.992Z,53.10
2023-04-28T01:26:44.660Z,53.10
2023-04-28T01:29:12.504Z,53.70
2023-04-28T01:31:41.221Z,53.10
2023-04-28T01:34:09.261Z,53.10
2023-04-28T01:36:37.915Z,53.10
2023-04-28T01:39:06.161Z,53.10
2023-04-28T01:41:36.510Z,53.10
2023-04-28T01:44:06.077Z,53.10
2023-04-28T01:46:34.035Z,53.10
2023-04-28T01:49:02.112Z,53.10
2023-04-28T01:51:29.988Z,53.10
2023-04-28T01:53:58.014Z,53.10
2023-04-28T01:56:26.039Z,53.10
2023-04-28T01:58:55.224Z,53.10
2023-04-28T02:01:23.128Z,53.10
2023-04-28T02:03:51.252Z,53.10
2023-04-28T02:06:19.278Z,53.10
2023-04-28T02:08:47.121Z,53.10
2023-04-28T02:11:14.996Z,53.10
2023-04-28T02:13:42.914Z,53.10
2023-04-28T02:16:12.179Z,53.10
2023-04-28T02:18:40.036Z,53.10
2023-04-28T02:21:11.956Z,53.10
2023-04-28T02:23:40.374Z,53.10
2023-04-28T02:26:08.354Z,53.10
2023-04-28T02:28:36.252Z,53.10
2023-04-28T02:31:08.705Z,53.10
2023-04-28T02:33:39.080Z,53.10
2023-04-28T02:36:08.357Z,53.10
2023-04-28T02:38:36.396Z,53.10
2023-04-28T02:41:05.789Z,53.00
2023-04-28T02:43:34.343Z,53.00
2023-04-28T02:46:03.244Z,53.10
2023-04-28T02:48:31.306Z,53.10
2023-04-28T02:51:00.490Z,53.00
2023-04-28T02:53:28.583Z,53.10
2023-04-28T02:55:56.889Z,53.10
2023-04-28T02:58:24.775Z,53.00
2023-04-28T03:00:52.719Z,53.20
2023-04-28T03:03:20.744Z,53.70
2023-04-28T03:05:48.676Z,53.10
2023-04-28T03:08:17.895Z,53.00
2023-04-28T03:10:45.751Z,53.10
2023-04-28T03:13:13.706Z,53.00
2023-04-28T03:15:41.697Z,53.10
2023-04-28T03:18:09.601Z,53.10
2023-04-28T03:20:37.516Z,53.10
2023-04-28T03:23:05.385Z,53.10
2023-04-28T03:25:34.579Z,53.10
2023-04-28T03:28:02.796Z,53.10
2023-04-28T03:30:30.808Z,53.10
2023-04-28T03:32:58.914Z,53.10
2023-04-28T03:35:26.810Z,53.10
2023-04-28T03:37:54.696Z,53.10
2023-04-28T03:40:22.668Z,53.10
2023-04-28T03:42:51.863Z,53.10
2023-04-28T03:45:19.725Z,53.10
2023-04-28T03:47:47.614Z,53.10
2023-04-28T03:50:15.496Z,53.10
2023-04-28T03:52:43.326Z,53.10
2023-04-28T03:55:11.590Z,53.10
2023-04-28T03:57:39.469Z,53.10
2023-04-28T04:00:10.187Z,53.20
2023-04-28T04:02:38.247Z,53.10
2023-04-28T04:05:07.105Z,53.10
2023-04-28T04:07:35.120Z,53.20
2023-04-28T04:10:04.625Z,53.10
2023-04-28T04:12:32.773Z,53.10
2023-04-28T04:15:00.649Z,53.10
2023-04-28T04:17:30.101Z,53.20
2023-04-28T04:19:58.037Z,53.20
2023-04-28T04:22:25.870Z,53.00
2023-04-28T04:24:53.738Z,53.20
2023-04-28T04:27:21.721Z,53.20
2023-04-28T04:29:49.585Z,53.10
2023-04-28T04:32:17.422Z,53.20
2023-04-28T04:34:46.710Z,53.20
2023-04-28T04:37:14.628Z,53.10
2023-04-28T04:39:42.508Z,53.20
2023-04-28T04:42:23.323Z,53.10
2023-04-28T04:44:52.476Z,53.10
2023-04-28T04:47:20.336Z,53.10
2023-04-28T04:49:49.821Z,53.10
2023-04-28T04:52:17.816Z,53.10
2023-04-28T04:54:45.911Z,53.10
2023-04-28T04:57:14.035Z,53.10
2023-04-28T04:59:41.876Z,53.10
2023-04-28T05:02:09.943Z,53.20
2023-04-28T05:04:37.989Z,53.20
2023-04-28T05:07:07.218Z,53.10
2023-04-28T05:09:35.081Z,53.20
2023-04-28T05:12:03.002Z,53.20
2023-04-28T05:14:31.021Z,53.20
2023-04-28T05:16:58.903Z,53.20
2023-04-28T05:19:26.815Z,53.20
2023-04-28T05:21:55.056Z,53.20
2023-04-28T05:24:24.595Z,53.20
2023-04-28T05:26:52.814Z,53.20
2023-04-28T05:29:20.720Z,53.20
2023-04-28T05:31:48.682Z,53.20
2023-04-28T05:34:17.085Z,53.20
2023-04-28T05:36:45.774Z,53.20
2023-04-28T05:39:13.626Z,53.20
2023-04-28T05:41:42.914Z,53.20
2023-04-28T05:44:11.110Z,53.20
2023-04-28T05:46:39.077Z,53.20
2023-04-28T05:49:07.006Z,53.20
2023-04-28T05:51:34.873Z,53.20
2023-04-28T05:54:02.980Z,53.20
2023-04-28T05:56:31.021Z,53.20
2023-04-28T05:59:03.942Z,53.20
2023-04-28T06:01:32.116Z,53.20
2023-04-28T06:04:00.215Z,53.20
2023-04-28T06:06:28.873Z,53.20
2023-04-28T06:08:56.990Z,53.20
2023-04-28T06:11:24.863Z,53.20
2023-04-28T06:13:52.835Z,53.20
2023-04-28T06:16:23.557Z,53.20
2023-04-28T06:18:51.711Z,53.20
2023-04-28T06:21:21.241Z,53.20
2023-04-28T06:23:49.146Z,53.20
2023-04-28T06:26:18.368Z,53.20
2023-04-28T06:28:46.660Z,53.20
2023-04-28T06:31:14.750Z,53.20
2023-04-28T06:33:44.017Z,53.30
2023-04-28T06:36:13.827Z,53.30
2023-04-28T06:38:42.863Z,53.30
2023-04-28T06:41:11.361Z,53.30
2023-04-28T06:43:39.576Z,53.30
2023-04-28T06:46:08.114Z,53.30
2023-04-28T06:48:36.093Z,53.30
2023-04-28T06:51:05.619Z,53.30
2023-04-28T06:53:33.661Z,53.30
2023-04-28T06:56:02.522Z,53.30
2023-04-28T06:58:30.434Z,53.30
2023-04-28T07:00:58.354Z,53.30
2023-04-28T07:03:28.685Z,53.30
2023-04-28T07:05:56.694Z,53.30
2023-04-28T07:08:25.920Z,53.30
2023-04-28T07:10:53.758Z,53.30
2023-04-28T07:13:22.065Z,53.30
2023-04-28T07:15:49.878Z,53.30
2023-04-28T07:18:17.790Z,53.40
2023-04-28T07:20:45.688Z,53.30
2023-04-28T07:23:13.605Z,53.30
2023-04-28T07:25:43.051Z,53.40
2023-04-28T07:28:11.240Z,53.40
2023-04-28T07:30:39.112Z,53.40
2023-04-28T07:33:07.396Z,53.40
2023-04-28T07:35:35.355Z,53.40
2023-04-28T07:38:03.974Z,53.30
2023-04-28T07:40:31.878Z,53.40
2023-04-28T07:43:01.055Z,53.40
2023-04-28T07:45:29.014Z,53.40
2023-04-28T07:47:56.893Z,53.40
2023-04-28T07:50:25.120Z,53.40
2023-04-28T07:52:53.656Z,53.40
2023-04-28T07:55:21.612Z,53.40
2023-04-28T07:57:49.556Z,53.40
2023-04-28T08:00:19.322Z,53.40
2023-04-28T08:02:47.323Z,53.40
2023-04-28T08:05:15.513Z,53.40
2023-04-28T08:07:43.631Z,53.40
2023-04-28T08:10:12.613Z,53.30
2023-04-28T08:12:41.354Z,53.50
2023-04-28T08:15:10.640Z,53.40
2023-04-28T08:17:40.261Z,53.50
2023-04-28T08:20:09.385Z,53.40
2023-04-28T08:22:37.236Z,53.40
2023-04-28T08:25:05.717Z,53.40
2023-04-28T08:27:34.195Z,53.40
2023-04-28T08:30:02.352Z,53.50
2023-04-28T08:32:30.211Z,53.50
2023-04-28T08:35:00.205Z,53.50
2023-04-28T08:37:28.105Z,53.50
2023-04-28T08:40:02.089Z,53.40
2023-04-28T08:42:31.295Z,53.50
2023-04-28T08:45:00.413Z,53.50
2023-04-28T08:47:34.420Z,53.50
2023-04-28T08:50:06.739Z,53.50
2023-04-28T08:52:35.572Z,53.50
2023-04-28T08:55:09.624Z,53.50
2023-04-28T08:57:41.413Z,53.40
2023-04-28T09:00:10.548Z,53.50
2023-04-28T09:02:41.990Z,53.50
2023-04-28T09:05:12.996Z,53.50
2023-04-28T09:07:41.548Z,53.40
2023-04-28T09:10:21.057Z,53.40
2023-04-28T09:12:51.924Z,53.50
2023-04-28T09:15:34.396Z,53.50
2023-04-28T09:18:03.238Z,53.50
2023-04-28T09:20:34.020Z,53.50
2023-04-28T09:23:15.412Z,53.50
2023-04-28T09:26:00.499Z,53.50
2023-04-28T09:28:28.441Z,53.50
2023-04-28T09:30:57.083Z,53.50
2023-04-28T09:33:25.126Z,53.50
2023-04-28T09:35:55.414Z,53.50
2023-04-28T09:38:24.399Z,53.50
2023-04-28T09:40:54.482Z,53.60
2023-04-28T09:43:26.822Z,53.50
2023-04-28T09:45:55.277Z,53.50
2023-04-28T09:48:34.067Z,53.60
2023-04-28T09:51:04.397Z,53.60
2023-04-28T09:53:33.274Z,53.60
2023-04-28T09:56:03.376Z,53.60
2023-04-28T09:58:32.827Z,53.60
2023-04-28T10:01:02.189Z,53.60
2023-04-28T10:03:31.671Z,53.60
2023-04-28T10:06:00.361Z,53.60
2023-04-28T10:08:29.789Z,53.60
2023-04-28T10:10:58.535Z,53.60
2023-04-28T10:13:26.755Z,53.60
2023-04-28T10:15:56.153Z,53.60
2023-04-28T10:18:24.772Z,53.60
2023-04-28T10:20:58.158Z,53.60
2023-04-28T10:24:07.763Z,53.60
2023-04-28T10:27:14.473Z,53.60
2023-04-28T10:29:44.088Z,53.60
2023-04-28T10:32:19.981Z,53.60
2023-04-28T10:34:48.895Z,53.60
2023-04-28T10:37:18.395Z,53.60
2023-04-28T10:40:23.936Z,53.60
2023-04-28T10:42:57.108Z,53.60
2023-04-28T10:46:09.332Z,53.60
2023-04-28T10:48:57.316Z,53.60
2023-04-28T10:51:29.121Z,53.60
2023-04-28T10:54:24.418Z,53.60
2023-04-28T10:57:19.990Z,53.60
2023-04-28T10:59:48.391Z,53.60
2023-04-28T11:02:51.092Z,53.70
2023-04-28T11:05:20.395Z,53.60
2023-04-28T11:08:37.201Z,53.60
2023-04-28T11:11:22.887Z,53.70
2023-04-28T11:13:51.461Z,53.70
2023-04-28T11:16:21.350Z,53.60
2023-04-28T11:19:12.719Z,53.70
2023-04-28T11:21:41.115Z,53.70
2023-04-28T11:24:11.320Z,53.70
2023-04-28T11:26:39.710Z,53.70
2023-04-28T11:29:07.727Z,53.70
2023-04-28T11:31:35.737Z,53.70
2023-04-28T11:34:07.795Z,53.70
2023-04-28T11:36:37.086Z,53.70
2023-04-28T11:39:07.956Z,53.70
2023-04-28T11:41:36.570Z,53.70
2023-04-28T11:44:11.778Z,53.70
2023-04-28T11:46:47.692Z,53.70
2023-04-28T11:49:17.059Z,53.70
2023-04-28T11:51:46.865Z,53.70
2023-04-28T11:54:15.066Z,53.70
2023-04-28T11:56:44.739Z,53.70
2023-04-28T11:59:13.905Z,53.70
2023-04-28T12:01:49.799Z,53.80
2023-04-28T12:04:30.474Z,53.70
2023-04-28T12:07:03.338Z,53.70
2023-04-28T12:09:31.835Z,53.80
2023-04-28T12:12:02.258Z,53.70
2023-04-28T12:14:31.449Z,53.80
2023-04-28T12:16:59.370Z,53.80
2023-04-28T12:19:27.224Z,53.80
2023-04-28T12:22:04.733Z,53.80
2023-04-28T12:24:33.123Z,53.80
2023-04-28T12:27:21.972Z,53.80
2023-04-28T12:29:50.925Z,53.80
2023-04-28T12:32:20.254Z,53.80
2023-04-28T12:34:49.877Z,53.80
2023-04-28T12:37:19.134Z,53.80
2023-04-28T12:39:47.390Z,53.80
2023-04-28T12:42:15.359Z,53.80
2023-04-28T12:44:43.244Z,53.80
2023-04-28T12:47:12.194Z,53.80
2023-04-28T12:49:40.414Z,53.80
2023-04-28T12:52:08.332Z,53.80
2023-04-28T12:54:37.965Z,53.90
2023-04-28T12:57:06.522Z,53.80
2023-04-28T12:59:34.491Z,53.80
2023-04-28T13:02:02.502Z,53.80
2023-04-28T13:04:31.120Z,53.80
2023-04-28T13:06:59.673Z,53.80
2023-04-28T13:09:27.902Z,53.80
2023-04-28T13:11:57.125Z,53.80
2023-04-28T13:14:25.334Z,53.90
2023-04-28T13:16:53.791Z,53.80
2023-04-28T13:19:21.711Z,53.90
2023-04-28T13:21:49.649Z,53.80
2023-04-28T13:24:17.489Z,53.80
2023-04-28T13:26:45.484Z,53.90
2023-04-28T13:29:15.269Z,53.90
2023-04-28T13:31:43.382Z,53.90
2023-04-28T13:34:15.970Z,53.90
2023-04-28T13:36:44.383Z,53.90
2023-04-28T13:39:14.374Z,54.00
2023-04-28T13:41:42.687Z,54.00
2023-04-28T13:44:10.691Z,53.90
2023-04-28T13:46:40.401Z,53.90
2023-04-28T13:49:08.380Z,53.90
2023-04-28T13:51:36.329Z,54.00
2023-04-28T13:54:05.375Z,53.90
2023-04-28T13:56:33.497Z,54.00
2023-04-28T13:59:01.481Z,54.00
2023-04-28T14:01:29.616Z,54.00
2023-04-28T14:03:59.155Z,54.00
2023-04-28T14:06:28.865Z,54.00
2023-04-28T14:08:56.909Z,54.00
2023-04-28T14:11:24.842Z,54.00
2023-04-28T14:13:52.706Z,54.00
2023-04-28T14:16:20.841Z,54.00
2023-04-28T14:18:48.982Z,54.00
2023-04-28T14:21:18.202Z,54.00
2023-04-28T14:23:46.073Z,54.00
2023-04-28T14:26:14.303Z,54.00
2023-04-28T14:28:42.251Z,54.00
2023-04-28T14:31:10.184Z,54.00
2023-04-28T14:33:38.079Z,54.00
2023-04-28T14:36:06.085Z,54.00
2023-04-28T14:38:35.989Z,54.10
2023-04-28T14:41:04.530Z,54.10
2023-04-28T14:43:32.387Z,54.00
2023-04-28T14:46:00.336Z,54.10
2023-04-28T14:48:28.330Z,54.00
2023-04-28T14:50:56.398Z,54.00
2023-04-28T14:53:24.771Z,54.10
2023-04-28T14:55:56.000Z,54.10
2023-04-28T14:58:25.788Z,54.10
2023-04-28T15:00:53.912Z,54.10
2023-04-28T15:03:22.169Z,54.00
2023-04-28T15:05:50.061Z,54.10
2023-04-28T15:08:17.924Z,54.00
2023-04-28T15:10:45.964Z,54.10
2023-04-28T15:13:15.236Z,54.10
2023-04-28T15:15:43.138Z,54.10
2023-04-28T15:18:11.133Z,54.10
2023-04-28T15:20:39.290Z,54.10
2023-04-28T15:23:07.202Z,54.10
2023-04-28T15:25:35.062Z,54.10
2023-04-28T15:28:03.982Z,54.10
2023-04-28T15:30:33.454Z,54.20
2023-04-28T15:33:01.668Z,54.10
2023-04-28T15:35:29.592Z,54.10
2023-04-28T15:37:57.790Z,54.00
2023-04-28T15:40:25.867Z,54.10
2023-04-28T15:42:53.801Z,54.10
2023-04-28T15:45:22.133Z,54.10
2023-04-28T15:47:51.849Z,54.10
2023-04-28T15:50:20.704Z,54.10
2023-04-28T15:52:50.261Z,54.10
2023-04-28T15:55:21.018Z,54.20
2023-04-28T15:57:49.854Z,54.20
2023-04-28T16:00:17.861Z,54.20
2023-04-28T16:02:46.389Z,54.20
2023-04-28T16:05:15.908Z,54.20
2023-04-28T16:07:44.372Z,54.10
2023-04-28T16:10:13.898Z,54.20
2023-04-28T16:12:43.012Z,54.20
2023-04-28T16:15:13.533Z,54.20
2023-04-28T16:17:44.160Z,54.10
2023-04-28T16:20:13.352Z,54.20
2023-04-28T16:22:43.123Z,54.20
2023-04-28T16:25:11.538Z,54.20
2023-04-28T16:27:40.110Z,54.20
2023-04-28T16:30:09.976Z,54.20
2023-04-28T16:32:38.432Z,54.20
2023-04-28T16:35:11.209Z,54.20
2023-04-28T16:37:40.900Z,54.20
2023-04-28T16:40:11.573Z,54.20
2023-04-28T16:42:39.756Z,54.20
2023-04-28T16:45:08.597Z,54.20
2023-04-28T16:47:36.531Z,54.20
2023-04-28T16:50:04.538Z,54.20
2023-04-28T16:52:33.334Z,54.20
2023-04-28T16:55:01.229Z,54.20
2023-04-28T16:57:30.448Z,54.20
2023-04-28T16:59:58.273Z,54.20
2023-04-28T17:02:26.314Z,54.20
2023-04-28T17:04:54.259Z,54.20
2023-04-28T17:07:24.949Z,54.20
2023-04-28T17:09:53.729Z,54.20
2023-04-28T17:12:23.294Z,54.20
2023-04-28T17:14:52.868Z,54.20
2023-04-28T17:17:20.793Z,54.20
2023-04-28T17:19:48.812Z,54.20
2023-04-28T17:22:17.076Z,54.20
2023-04-28T17:24:45.512Z,54.20
2023-04-28T17:27:14.700Z,54.20
2023-04-28T17:29:43.283Z,54.20
2023-04-28T17:32:12.479Z,54.20
2023-04-28T17:34:41.097Z,54.20
2023-04-28T17:37:08.936Z,54.30
2023-04-28T17:39:36.793Z,54.20
2023-04-28T17:42:05.173Z,54.20
2023-04-28T17:44:33.025Z,54.20
2023-04-28T17:47:01.232Z,54.20
2023-04-28T17:49:30.563Z,54.20
2023-04-28T17:51:58.400Z,54.20
2023-04-28T17:54:26.376Z,54.30
2023-04-28T17:56:54.701Z,54.20
2023-04-28T17:59:22.638Z,54.90
2023-04-28T18:01:50.558Z,54.20
2023-04-28T18:04:18.485Z,54.30
2023-04-28T18:06:47.687Z,54.20
2023-04-28T18:09:15.567Z,54.20
2023-04-28T18:11:43.922Z,54.20
2023-04-28T18:14:11.769Z,54.20
2023-04-28T18:16:39.697Z,54.20
2023-04-28T18:19:08.260Z,54.30
2023-04-28T18:21:37.391Z,54.20
2023-04-28T18:24:07.126Z,54.20
2023-04-28T18:26:34.995Z,54.30
2023-04-28T18:29:02.907Z,54.30
2023-04-28T18:31:31.458Z,54.30
2023-04-28T18:33:59.476Z,54.30
2023-04-28T18:36:27.680Z,54.30
2023-04-28T18:38:56.864Z,54.30
2023-04-28T18:41:26.085Z,54.30
2023-04-28T18:43:55.000Z,54.30
2023-04-28T18:46:24.239Z,54.30
2023-04-28T18:48:52.403Z,54.30
2023-04-28T18:51:20.761Z,54.30
2023-04-28T18:53:48.831Z,54.90
2023-04-28T18:56:17.237Z,54.30
2023-04-28T18:58:47.293Z,54.30
2023-04-28T19:01:16.046Z,54.30
2023-04-28T19:03:44.560Z,54.40
2023-04-28T19:06:13.545Z,54.40
2023-04-28T19:08:42.628Z,54.30
2023-04-28T19:11:10.991Z,54.40
2023-04-28T19:13:39.819Z,54.40
2023-04-28T19:16:09.101Z,54.40
2023-04-28T19:18:39.485Z,54.40
2023-04-28T19:21:07.338Z,54.30
2023-04-28T19:23:35.766Z,54.40
2023-04-28T19:26:03.725Z,54.30
2023-04-28T19:28:31.644Z,55.00
2023-04-28T19:30:59.747Z,54.40
2023-04-28T19:33:29.004Z,54.40
2023-04-28T19:35:57.130Z,54.30
2023-04-28T19:38:25.162Z,54.40
2023-04-28T19:41:00.912Z,54.40
2023-04-28T19:43:29.008Z,54.40
2023-04-28T19:45:57.446Z,54.30
2023-04-28T19:48:26.155Z,54.40
2023-04-28T19:50:55.603Z,54.40
2023-04-28T19:53:23.554Z,54.40
2023-04-28T19:55:51.469Z,54.40
2023-04-28T19:58:19.312Z,54.40
2023-04-28T20:00:47.843Z,54.40
2023-04-28T20:03:16.244Z,54.40
2023-04-28T20:05:44.268Z,54.40
2023-04-28T20:08:14.328Z,54.40
2023-04-28T20:10:42.402Z,54.40
2023-04-28T20:13:10.297Z,54.30
2023-04-28T20:15:38.340Z,54.40
2023-04-28T20:18:06.258Z,54.40
2023-04-28T20:20:34.279Z,54.40
2023-04-28T20:23:02.150Z,54.40
2023-04-28T20:25:31.387Z,54.40
2023-04-28T20:27:59.500Z,54.40
2023-04-28T20:30:27.713Z,54.40
2023-04-28T20:32:55.678Z,54.40
2023-04-28T20:35:23.882Z,54.40
2023-04-28T20:37:52.740Z,54.40
2023-04-28T20:40:20.638Z,54.40
2023-04-28T20:42:49.856Z,54.40
2023-04-28T20:45:17.904Z,54.40
2023-04-28T20:47:45.781Z,54.40
2023-04-28T20:50:13.690Z,54.40
2023-04-28T20:52:41.537Z,54.40
2023-04-28T20:55:11.346Z,54.40
2023-04-28T20:57:39.506Z,54.40
2023-04-28T21:00:10.576Z,54.40
2023-04-28T21:02:38.643Z,54.50
2023-04-28T21:05:07.286Z,54.50
2023-04-28T21:07:35.187Z,54.40
2023-04-28T21:10:03.139Z,55.10
2023-04-28T21:12:31.007Z,54.40
2023-04-28T21:14:59.522Z,54.40
2023-04-28T21:17:28.881Z,54.40
2023-04-28T21:19:57.419Z,54.40
2023-04-28T21:22:27.705Z,54.40
2023-04-28T21:24:55.967Z,54.40
2023-04-28T21:27:24.223Z,54.40
2023-04-28T21:29:52.879Z,54.50
2023-04-28T21:32:20.902Z,54.40
2023-04-28T21:34:50.412Z,54.40
2023-04-28T21:37:18.346Z,54.40
2023-04-28T21:39:47.038Z,55.10
2023-04-28T21:42:14.909Z,54.40
2023-04-28T21:44:42.784Z,54.40
2023-04-28T21:47:10.627Z,54.40
2023-04-28T21:49:38.500Z,54.50
2023-04-28T21:52:07.753Z,54.40
2023-04-28T21:54:35.771Z,54.40
2023-04-28T21:57:03.686Z,54.50
2023-04-28T21:59:31.646Z,54.50
2023-04-28T22:01:59.988Z,54.40
2023-04-28T22:04:28.418Z,54.40
2023-04-28T22:06:56.468Z,54.50
2023-04-28T22:09:27.304Z,54.40
2023-04-28T22:11:55.174Z,54.50
2023-04-28T22:14:39.458Z,54.50
2023-04-28T22:17:08.783Z,54.40
2023-04-28T22:19:36.691Z,54.50
2023-04-28T22:22:04.559Z,54.50
2023-04-28T22:24:33.796Z,54.50
2023-04-28T22:27:01.721Z,54.40
2023-04-28T22:29:29.722Z,54.50
2023-04-28T22:31:58.594Z,54.50
2023-04-28T22:34:26.540Z,54.50
2023-04-28T22:36:54.422Z,54.50
2023-04-28T22:39:24.909Z,54.40
2023-04-28T22:41:54.238Z,54.50
2023-04-28T22:44:22.252Z,54.50
2023-04-28T22:46:50.303Z,54.50
2023-04-28T22:49:20.269Z,54.50
2023-04-28T22:51:48.147Z,54.50
2023-04-28T22:54:16.038Z,54.50
2023-04-28T22:56:43.952Z,54.50
2023-04-28T22:59:13.320Z,54.50
2023-04-28T23:01:41.340Z,54.50
2023-04-28T23:04:09.442Z,54.50
2023-04-28T23:06:37.399Z,54.50
2023-04-28T23:09:05.442Z,54.50
2023-04-28T23:11:33.314Z,54.50
2023-04-28T23:14:01.355Z,54.50
2023-04-28T23:16:30.597Z,54.50
2023-04-28T23:18:58.606Z,54.50
2023-04-28T23:21:28.714Z,54.50
2023-04-28T23:23:56.620Z,54.50
2023-04-28T23:26:25.462Z,54.50
2023-04-28T23:28:53.486Z,54.50
2023-04-28T23:31:21.483Z,54.50
2023-04-28T23:33:50.756Z,54.50
2023-04-28T23:36:19.275Z,54.50
2023-04-28T23:38:47.206Z,54.50
2023-04-28T23:41:15.043Z,54.50
2023-04-28T23:43:43.234Z,54.50
2023-04-28T23:46:11.486Z,54.50
2023-04-28T23:48:39.479Z,54.50
2023-04-28T23:51:08.718Z,54.50
2023-04-28T23:53:36.634Z,54.50
2023-04-28T23:56:04.649Z,54.50
2023-04-28T23:58:32.568Z,54.50
